createdAt,value
2022-10-28T00:01:05.699Z,17.70
2022-10-28T00:03:32.896Z,17.57
2022-10-28T00:06:14.694Z,17.63
2022-10-28T00:08:41.962Z,17.62
2022-10-28T00:11:15.642Z,17.52
2022-10-28T00:13:43.220Z,17.62
2022-10-28T00:16:21.959Z,17.47
2022-10-28T00:18:50.201Z,17.59
2022-10-28T00:21:19.595Z,17.56
2022-10-28T00:23:46.256Z,17.53
2022-10-28T00:26:16.033Z,17.45
2022-10-28T00:28:45.351Z,17.49
2022-10-28T00:31:13.157Z,17.53
2022-10-28T00:33:39.647Z,17.41
2022-10-28T00:36:18.697Z,17.44
2022-10-28T00:38:46.900Z,17.35
2022-10-28T00:41:17.027Z,17.44
2022-10-28T00:43:49.108Z,17.42
2022-10-28T00:46:30.002Z,17.36
2022-10-28T00:49:04.600Z,17.28
2022-10-28T00:51:33.495Z,17.37
2022-10-28T00:54:00.026Z,17.40
2022-10-28T00:56:30.644Z,17.33
2022-10-28T00:58:59.777Z,17.50
2022-10-28T01:01:26.303Z,17.27
2022-10-28T01:03:54.636Z,17.32
2022-10-28T01:06:21.197Z,17.24
2022-10-28T01:08:47.583Z,17.35
2022-10-28T01:11:35.917Z,17.28
2022-10-28T01:14:08.386Z,17.28
2022-10-28T01:16:47.135Z,17.25
2022-10-28T01:19:37.820Z,17.17
2022-10-28T01:22:22.049Z,17.17
2022-10-28T01:25:22.578Z,17.38
2022-10-28T01:28:21.131Z,17.18
2022-10-28T01:31:01.714Z,17.13
2022-10-28T01:33:35.553Z,16.95
2022-10-28T01:36:08.864Z,17.23
2022-10-28T01:38:54.527Z,17.10
2022-10-28T01:41:30.557Z,16.87
2022-10-28T01:44:03.066Z,16.77
2022-10-28T01:46:39.718Z,16.68
2022-10-28T01:49:14.174Z,16.60
2022-10-28T01:51:46.156Z,16.42
2022-10-28T01:54:17.240Z,16.42
2022-10-28T01:56:46.010Z,16.50
2022-10-28T01:59:24.824Z,16.47
2022-10-28T02:01:51.610Z,16.53
2022-10-28T02:04:18.254Z,16.53
2022-10-28T02:06:48.004Z,16.40
2022-10-28T02:09:36.066Z,16.36
2022-10-28T02:12:26.430Z,16.81
2022-10-28T02:17:49.814Z,16.99
2022-10-28T02:20:31.499Z,17.07
2022-10-28T02:23:10.936Z,17.25
2022-10-28T02:25:55.491Z,17.34
2022-10-28T02:28:41.317Z,17.33
2022-10-28T02:31:22.740Z,17.41
2022-10-28T02:33:54.289Z,17.29
2022-10-28T02:36:23.236Z,17.32
2022-10-28T02:38:53.398Z,17.44
2022-10-28T02:41:38.634Z,17.50
2022-10-28T02:44:11.021Z,17.36
2022-10-28T02:46:41.968Z,17.36
2022-10-28T02:49:12.117Z,17.21
2022-10-28T02:51:46.646Z,16.93
2022-10-28T02:54:26.844Z,17.05
2022-10-28T02:56:59.447Z,17.01
2022-10-28T02:59:25.890Z,16.78
2022-10-28T03:01:52.379Z,16.80
2022-10-28T03:04:18.818Z,16.75
2022-10-28T03:06:45.220Z,16.63
2022-10-28T03:09:11.698Z,16.47
2022-10-28T03:11:38.191Z,16.36
2022-10-28T03:14:04.662Z,16.24
2022-10-28T03:16:31.164Z,16.24
2022-10-28T03:18:57.715Z,16.05
2022-10-28T03:21:24.136Z,16.04
2022-10-28T03:23:50.507Z,16.06
2022-10-28T03:26:16.898Z,16.22
2022-10-28T03:28:43.368Z,16.10
2022-10-28T03:31:09.893Z,16.00
2022-10-28T03:33:36.261Z,16.18
2022-10-28T03:36:02.710Z,16.11
2022-10-28T03:38:29.126Z,16.06
2022-10-28T03:40:55.536Z,16.09
2022-10-28T03:43:22.153Z,16.13
2022-10-28T03:45:48.950Z,16.14
2022-10-28T03:48:15.574Z,16.15
2022-10-28T03:50:41.999Z,16.06
2022-10-28T03:53:08.493Z,15.93
2022-10-28T03:55:34.875Z,16.08
2022-10-28T03:58:01.642Z,15.98
2022-10-28T04:00:28.694Z,16.07
2022-10-28T04:02:55.427Z,16.11
2022-10-28T04:05:22.258Z,16.12
2022-10-28T04:07:48.647Z,16.10
2022-10-28T04:10:15.028Z,16.41
2022-10-28T04:12:41.414Z,16.46
2022-10-28T04:15:07.993Z,16.82
2022-10-28T04:17:35.219Z,16.91
2022-10-28T04:20:01.672Z,16.82
2022-10-28T04:22:28.053Z,17.10
2022-10-28T04:24:54.736Z,17.23
2022-10-28T04:27:21.979Z,17.11
2022-10-28T04:29:48.410Z,17.25
2022-10-28T04:32:14.820Z,17.41
2022-10-28T04:34:41.173Z,17.45
2022-10-28T04:37:07.569Z,17.55
2022-10-28T04:39:33.968Z,17.44
2022-10-28T04:42:00.403Z,17.60
2022-10-28T04:44:26.788Z,17.63
2022-10-28T04:46:55.752Z,17.74
2022-10-28T04:49:22.259Z,17.86
2022-10-28T04:51:48.681Z,17.78
2022-10-28T04:54:15.082Z,17.77
2022-10-28T04:56:42.535Z,17.67
2022-10-28T04:59:08.934Z,17.77
2022-10-28T05:01:36.218Z,17.78
2022-10-28T05:04:02.809Z,17.85
2022-10-28T05:06:29.299Z,17.76
2022-10-28T05:08:55.782Z,17.85
2022-10-28T05:11:22.350Z,17.82
2022-10-28T05:13:48.724Z,17.93
2022-10-28T05:16:15.255Z,17.94
2022-10-28T05:18:41.673Z,18.04
2022-10-28T05:21:08.078Z,17.84
2022-10-28T05:23:34.490Z,17.90
2022-10-28T05:26:00.894Z,17.94
2022-10-28T05:28:27.330Z,17.93
2022-10-28T05:30:53.723Z,17.90
2022-10-28T05:33:20.141Z,17.94
2022-10-28T05:35:46.827Z,17.68
2022-10-28T05:38:13.249Z,17.77
2022-10-28T05:40:39.645Z,17.91
2022-10-28T05:43:06.179Z,17.87
2022-10-28T05:45:33.305Z,17.87
2022-10-28T05:47:59.690Z,17.95
2022-10-28T05:50:26.131Z,17.81
2022-10-28T05:52:55.759Z,17.97
2022-10-28T05:55:25.278Z,17.94
2022-10-28T05:57:53.055Z,18.14
2022-10-28T06:00:22.706Z,17.99
2022-10-28T06:02:49.105Z,18.05
2022-10-28T06:05:15.930Z,18.00
2022-10-28T06:07:42.400Z,18.15
2022-10-28T06:10:10.491Z,18.11
2022-10-28T06:12:35.919Z,18.20
2022-10-28T06:15:03.175Z,18.30
2022-10-28T06:17:29.575Z,18.33
2022-10-28T06:19:56.008Z,18.40
2022-10-28T06:22:22.471Z,18.27
2022-10-28T06:24:48.904Z,18.16
2022-10-28T06:27:15.311Z,18.22
2022-10-28T06:29:41.705Z,18.24
2022-10-28T06:32:09.179Z,18.24
2022-10-28T06:34:37.635Z,18.02
2022-10-28T06:37:05.610Z,17.96
2022-10-28T06:39:32.848Z,17.90
2022-10-28T06:41:59.498Z,18.03
2022-10-28T06:44:26.233Z,18.06
2022-10-28T06:46:54.157Z,17.98
2022-10-28T06:49:20.638Z,17.88
2022-10-28T06:51:47.019Z,18.05
2022-10-28T06:54:13.657Z,18.34
2022-10-28T06:56:40.061Z,18.40
2022-10-28T06:59:07.656Z,18.79
2022-10-28T07:01:34.147Z,18.76
2022-10-28T07:04:00.671Z,18.68
2022-10-28T07:06:27.042Z,18.75
2022-10-28T07:08:53.577Z,18.52
2022-10-28T07:11:20.008Z,18.72
2022-10-28T07:13:48.885Z,18.85
2022-10-28T07:16:15.772Z,18.90
2022-10-28T07:18:42.224Z,18.54
2022-10-28T07:21:08.665Z,18.34
2022-10-28T07:23:35.148Z,18.55
2022-10-28T07:26:01.626Z,17.85
2022-10-28T07:28:28.369Z,17.76
2022-10-28T07:30:55.003Z,17.83
2022-10-28T07:33:21.462Z,18.09
2022-10-28T07:35:47.915Z,18.10
2022-10-28T07:38:14.528Z,18.20
2022-10-28T07:40:40.939Z,18.27
2022-10-28T07:43:07.325Z,18.30
2022-10-28T07:45:35.045Z,18.29
2022-10-28T07:48:01.938Z,18.41
2022-10-28T07:50:28.332Z,18.59
2022-10-28T07:52:55.305Z,18.65
2022-10-28T07:55:22.034Z,18.63
2022-10-28T07:57:48.817Z,18.71
2022-10-28T08:00:16.006Z,18.87
2022-10-28T08:02:42.477Z,19.09
2022-10-28T08:05:09.415Z,19.36
2022-10-28T08:07:38.507Z,19.32
2022-10-28T08:10:06.481Z,19.65
2022-10-28T08:12:33.117Z,19.68
2022-10-28T08:14:59.588Z,20.03
2022-10-28T08:17:25.978Z,20.87
2022-10-28T08:19:52.383Z,21.71
2022-10-28T08:22:18.848Z,21.94
2022-10-28T08:24:45.242Z,22.40
2022-10-28T08:27:11.616Z,22.68
2022-10-28T08:29:38.034Z,22.74
2022-10-28T08:32:04.580Z,23.54
2022-10-28T08:34:31.361Z,23.62
2022-10-28T08:36:58.075Z,23.94
2022-10-28T08:39:24.744Z,22.88
2022-10-28T08:42:26.333Z,23.09
2022-10-28T08:45:15.761Z,23.66
2022-10-28T08:50:31.890Z,22.94
2022-10-28T08:53:14.536Z,23.02
2022-10-28T08:55:45.714Z,22.28
2022-10-28T08:58:19.533Z,23.10
2022-10-28T09:00:57.563Z,23.42
2022-10-28T09:03:34.388Z,24.47
2022-10-28T09:06:06.172Z,23.16
2022-10-28T09:08:37.565Z,23.38
2022-10-28T09:11:13.928Z,23.15
2022-10-28T09:14:06.660Z,22.91
2022-10-28T09:17:08.843Z,23.89
2022-10-28T09:19:49.198Z,23.80
2022-10-28T09:22:22.529Z,23.97
2022-10-28T09:24:59.317Z,24.48
2022-10-28T09:27:53.338Z,23.92
2022-10-28T09:30:31.251Z,23.37
2022-10-28T09:33:16.635Z,23.46
2022-10-28T09:35:45.685Z,23.46
2022-10-28T09:38:20.862Z,23.64
2022-10-28T09:40:58.105Z,23.88
2022-10-28T09:43:37.976Z,23.98
2022-10-28T09:46:16.215Z,24.02
2022-10-28T09:48:49.729Z,23.77
2022-10-28T09:51:38.297Z,23.79
2022-10-28T09:54:04.750Z,23.68
2022-10-28T09:56:31.268Z,23.18
2022-10-28T09:59:02.979Z,24.07
2022-10-28T10:01:33.766Z,23.65
2022-10-28T10:04:00.845Z,23.63
2022-10-28T10:06:36.899Z,22.76
2022-10-28T10:09:04.236Z,23.41
2022-10-28T10:11:43.611Z,22.69
2022-10-28T10:14:15.102Z,23.58
2022-10-28T10:16:44.907Z,24.05
2022-10-28T10:19:11.503Z,23.63
2022-10-28T10:21:52.847Z,23.36
2022-10-28T10:24:31.124Z,24.11
2022-10-28T10:27:01.176Z,22.98
2022-10-28T10:29:28.647Z,23.11
2022-10-28T10:32:39.675Z,23.91
2022-10-28T10:35:18.572Z,23.62
2022-10-28T10:37:47.552Z,23.22
2022-10-28T10:40:40.596Z,23.38
2022-10-28T10:43:31.582Z,23.30
2022-10-28T10:46:03.001Z,23.48
2022-10-28T10:48:32.374Z,23.70
2022-10-28T10:51:04.481Z,23.61
2022-10-28T10:53:33.074Z,23.51
2022-10-28T10:56:05.982Z,23.77
2022-10-28T10:58:39.996Z,24.55
2022-10-28T11:01:09.415Z,25.04
2022-10-28T11:03:54.062Z,23.64
2022-10-28T11:06:26.321Z,24.61
2022-10-28T11:09:02.472Z,23.76
2022-10-28T11:11:38.055Z,24.91
2022-10-28T11:14:20.080Z,24.73
2022-10-28T11:16:52.166Z,24.15
2022-10-28T11:19:23.151Z,23.97
2022-10-28T11:22:26.309Z,24.03
2022-10-28T11:25:04.949Z,24.33
2022-10-28T11:27:45.599Z,23.96
2022-10-28T11:30:18.189Z,23.49
2022-10-28T11:33:31.328Z,23.94
2022-10-28T11:36:00.444Z,24.08
2022-10-28T11:38:45.409Z,24.69
2022-10-28T11:41:40.371Z,24.47
2022-10-28T11:44:23.376Z,23.76
2022-10-28T11:47:06.626Z,23.68
2022-10-28T11:49:51.405Z,23.54
2022-10-28T11:52:27.772Z,24.17
2022-10-28T11:55:32.767Z,24.45
2022-10-28T11:58:17.926Z,24.62
2022-10-28T12:00:58.856Z,25.60
2022-10-28T12:03:53.767Z,25.69
2022-10-28T12:06:30.180Z,24.97
2022-10-28T12:09:11.957Z,25.02
2022-10-28T12:12:16.599Z,26.36
2022-10-28T12:15:03.861Z,25.92
2022-10-28T12:17:47.990Z,26.82
2022-10-28T12:20:24.475Z,26.01
2022-10-28T12:22:50.869Z,26.85
2022-10-28T12:25:24.097Z,26.32
2022-10-28T12:27:55.670Z,25.65
2022-10-28T12:30:29.137Z,26.15
2022-10-28T12:33:01.400Z,26.16
2022-10-28T12:35:35.527Z,26.23
2022-10-28T12:38:10.974Z,26.02
2022-10-28T12:40:46.083Z,25.19
2022-10-28T12:43:32.773Z,24.88
2022-10-28T12:46:00.055Z,25.56
2022-10-28T12:48:39.895Z,25.78
2022-10-28T12:51:16.475Z,25.86
2022-10-28T12:53:54.295Z,25.53
2022-10-28T12:56:33.396Z,26.46
2022-10-28T12:59:12.237Z,26.93
2022-10-28T13:01:39.626Z,26.75
2022-10-28T13:04:06.325Z,26.78
2022-10-28T13:06:56.123Z,26.82
2022-10-28T13:09:45.001Z,27.78
2022-10-28T13:12:38.988Z,26.27
2022-10-28T13:15:25.646Z,26.34
2022-10-28T13:18:00.276Z,26.41
2022-10-28T13:20:52.955Z,26.27
2022-10-28T13:23:40.740Z,25.33
2022-10-28T13:26:33.520Z,25.24
2022-10-28T13:29:04.470Z,25.36
2022-10-28T13:31:40.734Z,25.13
2022-10-28T13:34:09.461Z,24.78
2022-10-28T13:36:42.017Z,24.69
2022-10-28T13:39:28.275Z,24.38
2022-10-28T13:42:13.036Z,24.72
2022-10-28T13:45:03.829Z,24.38
2022-10-28T13:47:34.012Z,24.21
2022-10-28T13:50:06.792Z,24.28
2022-10-28T13:52:38.230Z,24.18
2022-10-28T13:55:24.494Z,24.27
2022-10-28T13:58:03.971Z,24.25
2022-10-28T14:00:30.327Z,24.04
2022-10-28T14:03:02.138Z,23.76
2022-10-28T14:05:37.667Z,24.18
2022-10-28T14:08:07.822Z,24.05
2022-10-28T14:10:38.097Z,23.99
2022-10-28T14:13:18.442Z,23.71
2022-10-28T14:15:45.537Z,23.73
2022-10-28T14:18:41.530Z,23.96
2022-10-28T14:21:02.328Z,23.84
2022-10-28T14:23:28.836Z,23.86
2022-10-28T14:25:56.010Z,23.80
2022-10-28T14:28:31.582Z,23.71
2022-10-28T14:31:10.173Z,23.49
2022-10-28T14:33:42.620Z,23.39
2022-10-28T14:36:21.028Z,23.43
2022-10-28T14:38:53.525Z,23.28
2022-10-28T14:41:37.744Z,23.19
2022-10-28T14:44:22.894Z,23.13
2022-10-28T14:47:10.858Z,23.08
2022-10-28T14:49:40.103Z,23.09
2022-10-28T14:52:12.715Z,23.00
2022-10-28T14:54:48.110Z,22.93
2022-10-28T14:57:16.483Z,22.78
2022-10-28T14:59:44.113Z,22.92
2022-10-28T15:02:16.209Z,22.83
2022-10-28T15:04:46.267Z,22.76
2022-10-28T15:07:16.280Z,22.61
2022-10-28T15:09:44.138Z,22.60
2022-10-28T15:12:17.555Z,22.55
2022-10-28T15:14:52.150Z,22.47
2022-10-28T15:17:20.235Z,22.41
2022-10-28T15:19:49.808Z,22.34
2022-10-28T15:22:23.043Z,22.23
2022-10-28T15:25:04.660Z,21.98
2022-10-28T15:27:33.733Z,22.00
2022-10-28T15:30:00.482Z,22.04
2022-10-28T15:32:32.873Z,21.85
2022-10-28T15:34:59.808Z,21.97
2022-10-28T15:37:29.954Z,21.85
2022-10-28T15:40:35.334Z,21.86
2022-10-28T15:43:04.665Z,21.76
2022-10-28T15:45:41.195Z,21.64
2022-10-28T15:48:14.661Z,21.69
2022-10-28T15:50:41.568Z,21.57
2022-10-28T15:53:10.641Z,21.58
2022-10-28T15:58:34.306Z,21.51
2022-10-28T16:01:00.854Z,21.38
2022-10-28T16:03:41.011Z,21.31
2022-10-28T16:06:42.699Z,21.41
2022-10-28T16:09:21.032Z,21.30
2022-10-28T16:11:56.281Z,21.38
2022-10-28T16:14:40.572Z,21.29
2022-10-28T16:17:27.080Z,21.19
2022-10-28T16:19:59.933Z,21.17
2022-10-28T16:22:29.108Z,21.11
2022-10-28T16:24:56.137Z,21.22
2022-10-28T16:27:28.237Z,21.18
2022-10-28T16:29:54.697Z,21.01
2022-10-28T16:32:46.780Z,20.97
2022-10-28T16:35:16.014Z,20.89
2022-10-28T16:37:45.288Z,20.83
2022-10-28T16:40:37.706Z,20.78
2022-10-28T16:43:01.433Z,20.79
2022-10-28T16:45:28.003Z,20.46
2022-10-28T16:47:54.587Z,20.52
2022-10-28T16:50:21.396Z,20.57
2022-10-28T16:52:47.835Z,20.58
2022-10-28T16:55:16.650Z,20.57
2022-10-28T16:57:43.053Z,20.51
2022-10-28T17:00:13.138Z,20.42
2022-10-28T17:02:39.873Z,20.38
2022-10-28T17:05:07.389Z,20.44
2022-10-28T17:07:33.806Z,20.40
2022-10-28T17:10:00.550Z,20.45
2022-10-28T17:12:27.755Z,20.34
2022-10-28T17:14:54.333Z,20.19
2022-10-28T17:17:20.957Z,20.35
2022-10-28T17:19:47.509Z,20.32
2022-10-28T17:22:14.219Z,20.36
2022-10-28T17:24:40.632Z,20.36
2022-10-28T17:27:07.435Z,20.40
2022-10-28T17:29:34.182Z,20.23
2022-10-28T17:32:00.681Z,20.28
2022-10-28T17:34:27.135Z,20.32
2022-10-28T17:36:53.511Z,20.36
2022-10-28T17:39:25.625Z,20.28
2022-10-28T17:41:52.561Z,20.43
2022-10-28T17:44:19.034Z,20.22
2022-10-28T17:46:47.548Z,20.31
2022-10-28T17:49:14.156Z,20.26
2022-10-28T17:51:40.856Z,20.22
2022-10-28T17:54:07.343Z,20.16
2022-10-28T17:56:34.269Z,20.20
2022-10-28T17:59:01.617Z,20.19
2022-10-28T18:01:29.796Z,20.26
2022-10-28T18:03:56.356Z,20.25
2022-10-28T18:06:23.112Z,20.37
2022-10-28T18:11:20.481Z,20.10
2022-10-28T18:13:49.900Z,20.30
2022-10-28T18:16:19.073Z,20.19
2022-10-28T18:18:45.620Z,19.93
2022-10-28T18:21:13.289Z,20.14
2022-10-28T18:23:41.104Z,20.18
2022-10-28T18:26:11.679Z,20.19
2022-10-28T18:28:38.660Z,20.14
2022-10-28T18:31:16.003Z,19.88
2022-10-28T18:33:43.797Z,20.07
2022-10-28T18:36:13.271Z,20.10
2022-10-28T18:38:39.899Z,20.03
2022-10-28T18:41:18.166Z,19.97
2022-10-28T18:43:45.088Z,20.01
2022-10-28T18:46:12.706Z,19.86
2022-10-28T18:48:39.737Z,19.91
2022-10-28T18:51:11.166Z,19.72
2022-10-28T18:53:39.739Z,19.87
2022-10-28T18:56:09.931Z,19.90
2022-10-28T18:58:36.754Z,19.76
2022-10-28T19:01:08.873Z,19.79
2022-10-28T19:03:35.771Z,19.71
2022-10-28T19:06:07.565Z,19.74
2022-10-28T19:08:34.137Z,19.70
2022-10-28T19:11:01.950Z,19.55
2022-10-28T19:13:28.765Z,19.57
2022-10-28T19:15:55.156Z,19.66
2022-10-28T19:18:22.087Z,19.58
2022-10-28T19:20:48.595Z,19.62
2022-10-28T19:23:14.982Z,19.51
2022-10-28T19:25:41.396Z,19.55
2022-10-28T19:28:07.961Z,19.59
2022-10-28T19:30:35.100Z,19.49
2022-10-28T19:33:01.609Z,19.46
2022-10-28T19:35:28.064Z,19.47
2022-10-28T19:37:54.566Z,19.52
2022-10-28T19:40:21.011Z,19.53
2022-10-28T19:42:47.507Z,19.52
2022-10-28T19:45:14.180Z,19.50
2022-10-28T19:47:40.578Z,19.42
2022-10-28T19:50:07.717Z,19.51
2022-10-28T19:52:34.126Z,19.48
2022-10-28T19:55:00.527Z,19.47
2022-10-28T19:57:26.936Z,19.47
2022-10-28T19:59:53.324Z,19.39
2022-10-28T20:02:19.775Z,19.35
2022-10-28T20:04:48.558Z,19.36
2022-10-28T20:07:14.965Z,19.37
2022-10-28T20:09:41.445Z,19.38
2022-10-28T20:12:07.836Z,19.58
2022-10-28T20:14:34.351Z,19.39
2022-10-28T20:17:06.290Z,19.56
2022-10-28T20:19:33.198Z,19.49
2022-10-28T20:21:59.619Z,19.38
2022-10-28T20:24:26.410Z,19.37
2022-10-28T20:26:52.872Z,19.37
2022-10-28T20:29:19.265Z,19.29
2022-10-28T20:31:45.719Z,19.33
2022-10-28T20:34:12.150Z,19.28
2022-10-28T20:36:40.519Z,19.23
2022-10-28T20:39:17.926Z,19.34
2022-10-28T20:41:46.628Z,19.24
2022-10-28T20:44:13.071Z,19.28
2022-10-28T20:46:39.779Z,19.25
2022-10-28T20:49:08.578Z,19.17
2022-10-28T20:51:35.319Z,19.15
2022-10-28T20:54:02.150Z,19.09
2022-10-28T20:56:31.286Z,19.03
2022-10-28T20:58:58.099Z,18.89
2022-10-28T21:01:27.748Z,18.93
2022-10-28T21:04:00.158Z,18.90
2022-10-28T21:06:27.406Z,18.85
2022-10-28T21:08:54.559Z,18.82
2022-10-28T21:11:23.404Z,18.66
2022-10-28T21:13:54.733Z,18.75
2022-10-28T21:16:22.460Z,18.70
2022-10-28T21:18:49.036Z,18.71
2022-10-28T21:21:15.978Z,18.79
2022-10-28T21:23:42.464Z,18.90
2022-10-28T21:26:11.564Z,18.79
2022-10-28T21:28:38.862Z,18.76
2022-10-28T21:31:07.876Z,18.73
2022-10-28T21:33:36.051Z,18.73
2022-10-28T21:36:05.809Z,18.73
2022-10-28T21:38:33.776Z,18.65
2022-10-28T21:41:12.608Z,18.58
2022-10-28T21:43:41.917Z,18.37
2022-10-28T21:46:09.397Z,18.33
2022-10-28T21:48:37.190Z,18.31
2022-10-28T21:51:09.876Z,18.06
2022-10-28T21:53:41.063Z,18.19
2022-10-28T21:56:18.292Z,18.17
2022-10-28T21:58:46.827Z,18.10
2022-10-28T22:01:19.405Z,18.31
2022-10-28T22:03:46.560Z,18.29
2022-10-28T22:06:13.425Z,18.33
2022-10-28T22:08:40.131Z,18.32
2022-10-28T22:11:15.311Z,18.23
2022-10-28T22:13:42.179Z,18.19
2022-10-28T22:16:12.191Z,18.14
2022-10-28T22:18:39.051Z,18.18
2022-10-28T22:21:11.839Z,18.01
2022-10-28T22:23:39.117Z,17.99
2022-10-28T22:26:07.840Z,17.92
2022-10-28T22:28:34.731Z,17.96
2022-10-28T22:31:03.291Z,18.00
2022-10-28T22:33:29.818Z,17.97
2022-10-28T22:35:57.978Z,17.90
2022-10-28T22:38:24.984Z,17.86
2022-10-28T22:41:21.511Z,17.95
2022-10-28T22:43:53.278Z,17.91
2022-10-28T22:46:20.710Z,17.94
2022-10-28T22:48:47.888Z,17.97
2022-10-28T22:51:15.196Z,17.91
2022-10-28T22:53:42.096Z,17.86
2022-10-28T22:56:13.207Z,17.91
2022-10-28T22:58:39.767Z,17.69
2022-10-28T23:01:08.956Z,17.81
2022-10-28T23:03:40.259Z,17.84
2022-10-28T23:06:08.458Z,17.87
2022-10-28T23:08:35.861Z,17.69
2022-10-28T23:11:02.711Z,17.72
2022-10-28T23:13:29.185Z,17.71
2022-10-28T23:15:55.665Z,17.57
2022-10-28T23:18:27.081Z,17.64
2022-10-28T23:20:53.522Z,17.55
2022-10-28T23:23:20.246Z,17.54
2022-10-28T23:25:53.812Z,17.31
2022-10-28T23:28:22.829Z,16.91
2022-10-28T23:30:49.328Z,16.92
2022-10-28T23:33:15.762Z,16.78
2022-10-28T23:35:42.999Z,16.73
2022-10-28T23:38:11.755Z,16.65
2022-10-28T23:40:38.448Z,16.55
2022-10-28T23:43:05.015Z,16.69
2022-10-28T23:45:31.463Z,16.42
2022-10-28T23:47:58.017Z,16.45
2022-10-28T23:50:24.502Z,16.38
2022-10-28T23:52:55.640Z,16.22
2022-10-28T23:55:22.282Z,16.33
2022-10-28T23:57:48.678Z,16.17
